Time;durP1;ratioP1;P1;durP2;ratioP2;P2;SDS_P1;SDS_P2;PMS_P1;PMS_P2;Temp;Humidity;BMP_temperature;BMP_pressure;BME280_temperature;BME280_humidity;BME280_pressure;Samples;Min_cycle;Max_cycle;Signal;HPM_P1;HPM_P2
2023/12/03 00:02:42;;;;;;;3.47;3.35;;;;;;;1.70;100.00;101833.28;10327956;28;20038;-73
2023/12/03 00:07:42;;;;;;;1.27;1.27;;;;;;;1.72;100.00;101820.66;10343595;28;20081;-74
2023/12/03 00:12:44;;;;;;;0.93;0.93;;;;;;;1.68;100.00;101832.53;10345545;28;20042;-73
2023/12/03 00:17:44;;;;;;;0.90;0.90;;;;;;;1.61;100.00;101841.00;10344656;28;20038;-73
2023/12/03 00:22:46;;;;;;;2.10;2.03;;;;;;;1.56;100.00;101827.19;10340489;28;20034;-72
2023/12/03 00:27:46;;;;;;;1.90;1.90;;;;;;;1.44;100.00;101829.94;10338065;28;20030;-72
2023/12/03 00:32:47;;;;;;;0.75;0.75;;;;;;;1.33;100.00;101836.91;10337446;28;20053;-74
2023/12/03 00:37:47;;;;;;;0.90;0.90;;;;;;;1.29;100.00;101829.25;10337757;28;20049;-74
2023/12/03 00:42:48;;;;;;;1.35;1.35;;;;;;;1.12;100.00;101834.03;10337493;28;20034;-73
2023/12/03 00:47:49;;;;;;;1.63;1.63;;;;;;;1.10;100.00;101835.09;10337353;28;20041;-72
2023/12/03 00:52:49;;;;;;;1.40;1.40;;;;;;;1.02;100.00;101832.13;10335406;28;20390;-70
2023/12/03 00:57:51;;;;;;;1.63;1.63;;;;;;;1.08;100.00;101837.84;10319662;28;20038;-73
2023/12/03 01:02:51;;;;;;;0.95;0.95;;;;;;;1.01;100.00;101836.59;10335802;28;20038;-73
2023/12/03 01:07:52;;;;;;;2.88;2.75;;;;;;;1.04;100.00;101836.38;10335649;28;20378;-73
2023/12/03 01:12:52;;;;;;;0.90;0.90;;;;;;;0.95;100.00;101839.72;10336246;28;20086;-73
2023/12/03 01:17:53;;;;;;;0.90;0.90;;;;;;;0.87;100.00;101837.63;10334678;28;20038;-73
2023/12/03 01:22:54;;;;;;;1.10;1.10;;;;;;;0.88;100.00;101851.81;10334577;28;20117;-74
2023/12/03 01:27:54;;;;;;;2.03;2.03;;;;;;;0.89;100.00;101850.84;10333692;28;20042;-71
2023/12/03 01:32:55;;;;;;;3.03;2.28;;;;;;;0.90;100.00;101860.56;10334522;28;20062;-72
2023/12/03 01:37:55;;;;;;;1.00;1.00;;;;;;;0.80;100.00;101859.50;10333829;28;20042;-73
2023/12/03 01:42:55;;;;;;;0.73;0.73;;;;;;;0.90;100.00;101856.06;10317450;28;20030;-72
2023/12/03 01:47:56;;;;;;;1.85;1.85;;;;;;;0.98;100.00;101863.50;10334650;28;20061;-73
2023/12/03 01:52:56;;;;;;;2.63;2.53;;;;;;;0.99;100.00;101865.22;10333866;28;20461;-71
2023/12/03 01:57:57;;;;;;;1.00;1.00;;;;;;;0.88;100.00;101867.81;10334371;28;20045;-72
2023/12/03 02:02:57;;;;;;;0.80;0.80;;;;;;;0.87;100.00;101871.44;10316393;28;20449;-72
2023/12/03 02:07:58;;;;;;;1.00;1.00;;;;;;;0.78;100.00;101883.63;10334138;28;20037;-73
2023/12/03 02:12:58;;;;;;;1.00;1.00;;;;;;;0.68;100.00;101883.41;10333054;28;20034;-73
2023/12/03 02:17:58;;;;;;;0.98;0.98;;;;;;;0.55;100.00;101874.59;10333707;28;20495;-72
2023/12/03 02:23:02;;;;;;;3.25;3.15;;;;;;;0.47;100.00;101864.47;10333860;28;20122;-72
2023/12/03 02:28:02;;;;;;;1.20;1.20;;;;;;;0.46;100.00;101867.25;10315160;28;20037;-74
2023/12/03 02:33:03;;;;;;;1.15;1.15;;;;;;;0.39;100.00;101873.97;10333080;28;20057;-72
2023/12/03 02:38:03;;;;;;;0.80;0.80;;;;;;;0.36;100.00;101871.53;10334134;28;20031;-72
2023/12/03 02:43:04;;;;;;;1.83;1.83;;;;;;;0.25;100.00;101874.91;10332852;28;20098;-73
2023/12/03 02:48:04;;;;;;;2.80;1.83;;;;;;;0.21;100.00;101882.28;10331339;28;20034;-73
2023/12/03 02:53:05;;;;;;;2.85;2.65;;;;;;;0.16;100.00;101879.09;10333584;28;20097;-73
2023/12/03 02:58:05;;;;;;;0.80;0.80;;;;;;;0.11;100.00;101878.53;10333922;28;20057;-72
2023/12/03 03:03:05;;;;;;;1.50;1.50;;;;;;;0.04;100.00;101879.09;10317092;28;20066;-72
2023/12/03 03:08:06;;;;;;;1.65;1.65;;;;;;;0.00;100.00;101867.78;10367082;28;20038;-74
2023/12/03 03:13:08;;;;;;;1.80;1.80;;;;;;;-0.02;100.00;101867.88;10343355;28;20049;-74
2023/12/03 03:18:08;;;;;;;0.60;0.60;;;;;;;-0.10;100.00;101875.53;10333556;28;20390;-72
2023/12/03 03:23:09;;;;;;;2.05;2.00;;;;;;;-0.06;100.00;101878.88;10331317;28;20100;-72
2023/12/03 03:28:09;;;;;;;1.67;1.67;;;;;;;-0.13;100.00;101877.56;10333163;28;20520;-72
2023/12/03 03:33:10;;;;;;;1.02;1.02;;;;;;;-0.19;100.00;101869.97;10333087;28;20062;-74
2023/12/03 03:38:10;;;;;;;0.82;0.82;;;;;;;-0.21;100.00;101878.09;10331028;28;20031;-72
2023/12/03 03:43:10;;;;;;;1.10;1.10;;;;;;;-0.25;100.00;101885.44;10331962;28;20030;-72
2023/12/03 03:48:11;;;;;;;2.67;2.47;;;;;;;-0.29;100.00;101893.69;10331837;28;20473;-73
2023/12/03 03:53:11;;;;;;;0.90;0.90;;;;;;;-0.22;100.00;101892.34;10333414;28;20470;-73
2023/12/03 03:58:12;;;;;;;0.80;0.80;;;;;;;-0.26;100.00;101882.84;10340240;28;20050;-73
2023/12/03 04:03:12;;;;;;;1.60;1.50;;;;;;;-0.14;100.00;101882.03;10338697;28;20034;-73
2023/12/03 04:08:13;;;;;;;1.00;1.00;;;;;;;-0.19;100.00;101885.94;10343534;28;20050;-74
2023/12/03 04:13:13;;;;;;;7.18;6.68;;;;;;;-0.28;100.00;101888.28;10338074;28;20097;-74
2023/12/03 04:18:14;;;;;;;1.58;1.58;;;;;;;-0.31;100.00;101885.84;10338124;28;20100;-73
2023/12/03 04:23:14;;;;;;;1.50;1.50;;;;;;;-0.41;100.00;101890.06;10338355;28;20046;-73
2023/12/03 04:28:15;;;;;;;0.90;0.90;;;;;;;-0.37;100.00;101888.06;10338065;28;20057;-73
2023/12/03 04:33:15;;;;;;;0.90;0.90;;;;;;;-0.48;100.00;101878.09;10337981;28;20136;-73
2023/12/03 04:38:16;;;;;;;2.17;2.08;;;;;;;-0.37;100.00;101888.91;10337054;28;20146;-71
2023/12/03 04:43:16;;;;;;;1.05;1.05;;;;;;;-0.36;100.00;101876.44;10336803;28;20053;-72
2023/12/03 04:48:16;;;;;;;2.55;2.50;;;;;;;-0.37;100.00;101888.91;10336812;28;20446;-73
2023/12/03 04:53:17;;;;;;;1.17;1.17;;;;;;;-0.43;100.00;101884.00;10336238;28;20039;-73
2023/12/03 04:58:17;;;;;;;0.90;0.90;;;;;;;-0.48;100.00;101886.09;10334773;28;20064;-74
2023/12/03 05:03:18;;;;;;;3.42;3.13;;;;;;;-0.53;100.00;101890.88;10334974;28;20038;-74
2023/12/03 05:08:18;;;;;;;1.70;1.70;;;;;;;-0.49;100.00;101890.56;10337402;28;20046;-73
2023/12/03 05:13:18;;;;;;;2.00;1.92;;;;;;;-0.50;100.00;101883.53;10340404;28;20089;-71
2023/12/03 05:18:19;;;;;;;0.93;0.93;;;;;;;-0.52;100.00;101884.59;10336867;28;20120;-74
2023/12/03 05:23:19;;;;;;;2.10;2.05;;;;;;;-0.59;100.00;101893.94;10336464;28;20128;-72
2023/12/03 05:28:20;;;;;;;7.47;7.05;;;;;;;-0.69;100.00;101890.19;10335858;28;20094;-73
2023/12/03 05:33:20;;;;;;;4.35;3.47;;;;;;;-0.70;100.00;101905.28;10334661;28;20578;-73
2023/12/03 05:38:21;;;;;;;1.95;1.88;;;;;;;-0.71;100.00;101895.59;10334979;28;20537;-74
2023/12/03 05:43:21;;;;;;;1.92;1.92;;;;;;;-0.76;100.00;101895.91;10335057;28;20042;-74
2023/12/03 05:48:22;;;;;;;1.00;1.00;;;;;;;-0.75;100.00;101899.41;10334043;28;20031;-73
2023/12/03 05:53:22;;;;;;;1.08;1.08;;;;;;;-0.85;100.00;101893.84;10334510;28;20070;-72
2023/12/03 05:58:23;;;;;;;1.20;1.20;;;;;;;-0.83;100.00;101894.59;10334554;28;20414;-71
2023/12/03 06:03:23;;;;;;;0.82;0.82;;;;;;;-0.86;100.00;101900.13;10334122;28;20363;-71
2023/12/03 06:08:24;;;;;;;2.25;2.08;;;;;;;-0.87;100.00;101914.34;10332932;28;20038;-72
2023/12/03 06:13:24;;;;;;;4.50;4.30;;;;;;;-0.93;100.00;101914.72;10333726;28;20042;-73
2023/12/03 06:18:24;;;;;;;1.67;1.67;;;;;;;-0.95;100.00;101912.19;10331700;28;20088;-73
2023/12/03 06:23:25;;;;;;;1.80;1.75;;;;;;;-1.05;100.00;101910.22;10337418;28;20047;-73
2023/12/03 06:28:26;;;;;;;0.93;0.93;;;;;;;-0.98;100.00;101907.06;10336234;28;20044;-72
2023/12/03 06:33:26;;;;;;;1.15;1.15;;;;;;;-1.03;100.00;101905.66;10331678;28;20058;-73
2023/12/03 06:38:27;;;;;;;1.20;1.20;;;;;;;-0.99;100.00;101886.75;10316716;28;20358;-73
2023/12/03 06:43:27;;;;;;;1.05;1.05;;;;;;;-0.80;100.00;101902.38;10331459;28;20489;-70
2023/12/03 06:48:28;;;;;;;2.33;2.15;;;;;;;-0.69;100.00;101895.50;10332654;28;20045;-72
2023/12/03 06:53:28;;;;;;;2.67;2.58;;;;;;;-0.67;100.00;101891.81;10332745;28;20125;-71
2023/12/03 06:58:28;;;;;;;5.65;4.40;;;;;;;-0.63;100.00;101895.09;10332617;28;20066;-72
2023/12/03 07:03:29;;;;;;;2.55;2.38;;;;;;;-0.62;100.00;101888.81;10330943;28;20547;-71
2023/12/03 07:08:30;;;;;;;3.97;3.65;;;;;;;-0.57;100.00;101902.69;10330983;28;20042;-71
2023/12/03 07:13:30;;;;;;;1.45;1.45;;;;;;;-0.58;100.00;101899.16;10330645;28;20065;-72
2023/12/03 07:18:31;;;;;;;0.90;0.90;;;;;;;-0.54;100.00;101906.00;10332263;28;20477;-71
2023/12/03 07:23:31;;;;;;;5.50;3.17;;;;;;;-0.50;100.00;101912.81;10332191;28;20047;-70
2023/12/03 07:28:32;;;;;;;1.60;1.60;;;;;;;-0.49;100.00;101911.00;10335524;28;20038;-73
2023/12/03 07:33:32;;;;;;;24.23;3.72;;;;;;;-0.52;100.00;101909.38;10339512;28;20132;-71
2023/12/03 07:38:32;;;;;;;1.65;1.65;;;;;;;-0.50;100.00;101907.50;10339664;28;20046;-71
2023/12/03 07:43:34;;;;;;;1.15;1.15;;;;;;;-0.59;100.00;101915.22;10343540;28;20038;-71
2023/12/03 07:48:35;;;;;;;1.33;1.33;;;;;;;-0.47;100.00;101923.25;10309772;28;20474;-71
2023/12/03 07:53:35;;;;;;;2.88;2.67;;;;;;;-0.47;100.00;101925.06;10345512;28;20038;-71
2023/12/03 07:58:36;;;;;;;1.33;1.33;;;;;;;-0.52;100.00;101924.50;10346154;28;20026;-71
2023/12/03 08:03:36;;;;;;;6.32;5.90;;;;;;;-0.44;100.00;101929.34;10361415;28;20042;-73
2023/12/03 08:08:37;;;;;;;0.90;0.90;;;;;;;-0.46;100.00;101932.09;10355856;28;20034;-71
2023/12/03 08:13:37;;;;;;;0.90;0.90;;;;;;;-0.42;100.00;101933.59;10322265;28;20066;-70
2023/12/03 08:18:38;;;;;;;0.90;0.90;;;;;;;-0.42;100.00;101930.91;10337341;28;20507;-71
2023/12/03 08:23:38;;;;;;;2.22;2.17;;;;;;;-0.36;100.00;101930.53;10338391;28;20034;-70
2023/12/03 08:28:39;;;;;;;0.80;0.80;;;;;;;-0.26;100.00;101930.75;10337922;28;20443;-70
2023/12/03 08:33:39;;;;;;;1.77;1.77;;;;;;;-0.11;100.00;101927.09;10336173;28;20062;-71
2023/12/03 08:38:42;;;;;;;4.93;4.63;;;;;;;0.08;100.00;101932.03;10337891;28;20455;-70
2023/12/03 08:43:42;;;;;;;2.70;2.60;;;;;;;0.50;100.00;101919.38;10340732;28;20050;-71
2023/12/03 08:48:44;;;;;;;3.90;3.75;;;;;;;0.52;100.00;101919.28;10335780;28;20039;-71
2023/12/03 08:53:44;;;;;;;0.80;0.80;;;;;;;0.45;100.00;101922.38;10336972;28;20104;-73
2023/12/03 08:58:44;;;;;;;0.90;0.90;;;;;;;0.47;100.00;101923.09;10334551;28;20049;-72
2023/12/03 09:03:45;;;;;;;0.65;0.65;;;;;;;0.48;100.00;101918.63;10336397;28;20043;-70
2023/12/03 09:08:45;;;;;;;2.75;2.65;;;;;;;0.51;100.00;101912.22;10336432;28;20042;-72
2023/12/03 09:13:46;;;;;;;2.33;2.22;;;;;;;0.39;100.00;101904.13;10337197;28;20116;-72
2023/12/03 09:18:46;;;;;;;0.73;0.73;;;;;;;0.34;100.00;101900.06;10336313;28;20034;-73
2023/12/03 09:23:47;;;;;;;1.50;1.50;;;;;;;0.38;100.00;101897.09;10337146;28;20463;-72
2023/12/03 09:28:47;;;;;;;0.80;0.80;;;;;;;0.45;100.00;101887.72;10336312;28;20026;-73
2023/12/03 09:33:48;;;;;;;1.38;1.38;;;;;;;0.44;100.00;101895.81;10334727;28;20062;-74
2023/12/03 09:38:48;;;;;;;3.95;3.78;;;;;;;0.54;100.00;101902.19;10274785;28;20039;-73
2023/12/03 09:43:49;;;;;;;0.90;0.90;;;;;;;0.45;100.00;101903.72;10293796;28;20050;-72
2023/12/03 09:48:51;;;;;;;2.70;2.60;;;;;;;0.42;100.00;101911.06;10292707;28;20042;-73
2023/12/03 09:53:51;;;;;;;0.90;0.90;;;;;;;0.33;100.00;101909.88;10292906;28;20179;-73
2023/12/03 09:58:51;;;;;;;1.10;1.10;;;;;;;0.44;100.00;101909.13;10292817;28;20031;-73
2023/12/03 10:03:52;;;;;;;1.40;1.40;;;;;;;0.54;100.00;101904.84;10293338;28;20073;-72
2023/12/03 10:08:53;;;;;;;0.70;0.70;;;;;;;0.45;100.00;101902.88;10293033;28;20062;-73
2023/12/03 10:13:54;;;;;;;0.98;0.98;;;;;;;0.51;100.00;101901.56;10294212;28;20121;-74
2023/12/03 10:18:54;;;;;;;0.80;0.80;;;;;;;0.51;100.00;101901.56;10293238;28;20082;-73
2023/12/03 10:23:58;;;;;;;0.80;0.80;;;;;;;0.53;100.00;101887.16;10292835;28;20066;-73
2023/12/03 10:28:59;;;;;;;2.28;2.28;;;;;;;0.51;100.00;101869.56;10292433;28;20034;-73
2023/12/03 10:33:59;;;;;;;1.13;1.13;;;;;;;0.55;100.00;101863.09;10291280;28;20082;-73
2023/12/03 10:39:00;;;;;;;2.20;2.10;;;;;;;0.53;100.00;101870.31;10294562;28;20038;-73
2023/12/03 10:44:00;;;;;;;3.20;2.90;;;;;;;0.61;100.00;101879.50;10275348;28;20034;-72
2023/12/03 10:49:01;;;;;;;2.45;2.25;;;;;;;0.72;100.00;101875.22;10274955;28;20145;-74
2023/12/03 10:54:01;;;;;;;1.20;1.20;;;;;;;0.83;100.00;101864.59;10292416;28;20038;-73
2023/12/03 10:59:03;;;;;;;0.93;0.93;;;;;;;0.96;100.00;101864.56;10295229;28;20126;-74
2023/12/03 11:04:35;;;;;;;1.02;1.02;;;;;;;1.18;100.00;101856.69;10296768;28;20149;-72
2023/12/03 11:09:36;;;;;;;2.03;2.00;;;;;;;1.19;100.00;101839.75;10300229;28;20045;-72
2023/12/03 11:14:37;;;;;;;2.20;2.20;;;;;;;1.35;100.00;101847.47;10300038;28;20089;-73
2023/12/03 11:19:37;;;;;;;1.00;1.00;;;;;;;1.36;100.00;101842.00;10299504;28;20030;-73
2023/12/03 11:24:45;;;;;;;1.65;1.65;;;;;;;1.43;100.00;101834.38;10282312;28;20027;-72
2023/12/03 11:29:50;;;;;;;2.35;2.25;;;;;;;1.54;100.00;101829.09;10301231;28;20091;-72
2023/12/03 11:35:01;;;;;;;1.00;1.00;;;;;;;1.85;100.00;101829.41;10298347;28;20043;-72
2023/12/03 11:40:24;;;;;;;0.80;0.80;;;;;;;2.10;100.00;101831.03;10300666;28;20035;-73
2023/12/03 11:45:29;;;;;;;3.13;1.83;;;;;;;2.29;100.00;101830.44;10301609;28;20047;-72
2023/12/03 11:50:30;;;;;;;0.85;0.85;;;;;;;2.36;100.00;101820.97;10302462;28;20370;-73
2023/12/03 11:55:35;;;;;;;1.05;1.05;;;;;;;2.33;100.00;101819.41;10301946;28;20069;-72
2023/12/03 12:00:37;;;;;;;1.10;1.10;;;;;;;2.28;100.00;101815.41;10301525;28;20367;-73
2023/12/03 12:05:47;;;;;;;1.70;1.70;;;;;;;2.32;100.00;101807.00;10282286;28;20035;-72
2023/12/03 12:10:51;;;;;;;0.70;0.70;;;;;;;2.10;100.00;101801.66;10297724;28;20046;-73
2023/12/03 12:15:53;;;;;;;4.10;2.10;;;;;;;2.01;100.00;101784.53;10295864;28;20247;-72
2023/12/03 12:21:05;;;;;;;0.95;0.95;;;;;;;1.77;100.00;101791.78;10297327;28;20490;-72
2023/12/03 12:26:06;;;;;;;0.73;0.73;;;;;;;1.80;100.00;101783.53;10298025;28;20087;-72
2023/12/03 12:31:06;;;;;;;8.80;8.27;;;;;;;1.75;100.00;101793.72;10279762;28;20110;-74
2023/12/03 12:36:09;;;;;;;1.00;1.00;;;;;;;1.62;100.00;101789.31;10279630;28;20055;-72
2023/12/03 12:41:10;;;;;;;1.50;1.50;;;;;;;1.74;100.00;101784.00;10295969;28;20201;-72
2023/12/03 12:46:10;;;;;;;1.42;1.33;;;;;;;1.77;100.00;101771.28;10295539;28;20046;-72
2023/12/03 12:51:21;;;;;;;0.98;0.98;;;;;;;1.70;100.00;101770.06;10297623;28;20403;-72
2023/12/03 12:56:22;;;;;;;0.80;0.80;;;;;;;1.67;100.00;101770.28;10297172;28;20045;-72
2023/12/03 13:01:22;;;;;;;1.40;1.40;;;;;;;1.61;100.00;101766.25;10324763;28;20041;-74
2023/12/03 13:06:23;;;;;;;0.70;0.70;;;;;;;1.63;100.00;101764.34;10317506;28;20042;-72
2023/12/03 13:11:23;;;;;;;1.67;1.67;;;;;;;1.57;100.00;101766.63;10300665;28;20469;-74
2023/12/03 13:16:24;;;;;;;0.80;0.80;;;;;;;1.63;100.00;101755.47;10296866;28;20097;-73
2023/12/03 13:21:24;;;;;;;0.80;0.80;;;;;;;1.49;100.00;101758.34;10295218;28;20042;-72
2023/12/03 13:26:25;;;;;;;1.70;1.70;;;;;;;1.31;100.00;101739.28;10293855;28;20050;-72
2023/12/03 13:31:25;;;;;;;1.23;1.23;;;;;;;1.30;100.00;101742.88;10295221;28;20113;-72
2023/12/03 13:36:27;;;;;;;1.30;1.30;;;;;;;1.30;100.00;101741.06;10295608;28;20082;-70
2023/12/03 13:41:29;;;;;;;3.70;2.90;;;;;;;1.27;100.00;101732.44;10295633;28;20494;-73
2023/12/03 13:46:30;;;;;;;0.73;0.73;;;;;;;1.28;100.00;101720.81;10277683;28;20363;-73
2023/12/03 13:51:31;;;;;;;4.18;2.05;;;;;;;1.31;100.00;101716.09;10294706;28;20079;-73
2023/12/03 13:56:31;;;;;;;1.75;1.75;;;;;;;1.33;100.00;101708.81;10292833;28;20031;-71
2023/12/03 14:01:32;;;;;;;0.55;0.55;;;;;;;1.21;100.00;101696.41;10294500;28;20019;-74
2023/12/03 14:06:32;;;;;;;2.25;1.45;;;;;;;1.29;100.00;101690.50;10293170;28;20038;-72
2023/12/03 14:11:33;;;;;;;0.80;0.80;;;;;;;1.36;100.00;101686.38;10294742;28;20026;-75
2023/12/03 14:16:33;;;;;;;1.65;1.50;;;;;;;1.33;100.00;101683.94;10293806;28;20089;-77
2023/12/03 14:21:36;;;;;;;0.73;0.73;;;;;;;1.16;100.00;101662.09;10276730;28;20080;-75
2023/12/03 14:26:36;;;;;;;24.70;16.40;;;;;;;1.19;100.00;101670.84;10292106;28;20070;-76
2023/12/03 14:31:37;;;;;;;17.58;13.10;;;;;;;1.34;100.00;101667.84;10293820;28;20070;-75
2023/12/03 14:36:37;;;;;;;19.52;12.90;;;;;;;1.39;100.00;101668.31;10275755;28;20039;-76
2023/12/03 14:41:40;;;;;;;26.63;12.73;;;;;;;1.33;100.00;101666.13;10259828;28;20089;-70
2023/12/03 14:46:41;;;;;;;18.83;11.23;;;;;;;1.28;100.00;101668.31;10293225;28;20054;-75
2023/12/03 14:51:41;;;;;;;18.17;12.10;;;;;;;1.21;100.00;101655.53;10291661;28;20394;-70
2023/12/03 14:56:42;;;;;;;19.42;14.13;;;;;;;1.22;100.00;101646.59;10292715;28;20113;-70
2023/12/03 15:01:42;;;;;;;22.63;13.07;;;;;;;1.21;100.00;101637.72;10292600;28;20026;-72
2023/12/03 15:06:43;;;;;;;18.77;13.68;;;;;;;1.16;100.00;101627.41;10290296;28;20034;-73
2023/12/03 15:11:43;;;;;;;20.98;13.55;;;;;;;1.23;100.00;101632.28;10292105;28;20054;-71
2023/12/03 15:16:43;;;;;;;15.82;11.77;;;;;;;1.19;100.00;101633.47;10291751;28;20062;-71
2023/12/03 15:21:44;;;;;;;16.63;11.85;;;;;;;1.24;100.00;101641.97;10291706;28;20038;-70
2023/12/03 15:26:44;;;;;;;24.80;14.85;;;;;;;1.30;100.00;101642.34;10291537;28;20360;-72
2023/12/03 15:31:45;;;;;;;18.25;13.52;;;;;;;1.28;100.00;101627.44;10293056;28;20093;-72
2023/12/03 15:36:48;;;;;;;32.13;14.10;;;;;;;1.24;100.00;101632.13;10291749;28;20051;-72
2023/12/03 15:41:48;;;;;;;14.50;11.50;;;;;;;1.21;100.00;101632.38;10292122;28;20035;-71
2023/12/03 15:46:49;;;;;;;21.55;13.50;;;;;;;1.12;100.00;101615.28;10292686;28;20470;-71
2023/12/03 15:51:49;;;;;;;15.23;11.68;;;;;;;1.03;100.00;101613.31;10298313;28;20134;-73
2023/12/03 15:56:52;;;;;;;18.35;11.52;;;;;;;1.07;100.00;101603.25;10298574;28;20045;-71
2023/12/03 16:01:52;;;;;;;20.88;11.50;;;;;;;1.03;100.00;101612.47;10298308;28;20035;-72
2023/12/03 16:06:53;;;;;;;16.98;12.70;;;;;;;1.05;100.00;101599.84;10299324;28;20482;-73
2023/12/03 16:11:55;;;;;;;17.15;11.65;;;;;;;1.06;100.00;101606.91;10298360;28;20457;-73
2023/12/03 16:16:56;;;;;;;19.70;15.82;;;;;;;1.00;100.00;101586.03;10296428;28;20035;-72
2023/12/03 16:21:56;;;;;;;17.92;13.73;;;;;;;1.05;100.00;101594.53;10297864;28;20042;-72
2023/12/03 16:26:57;;;;;;;26.10;14.38;;;;;;;0.90;100.00;101597.41;10295883;28;20069;-71
2023/12/03 16:32:01;;;;;;;23.83;14.30;;;;;;;0.85;100.00;101593.41;10297313;28;20438;-72
2023/12/03 16:37:01;;;;;;;22.05;16.48;;;;;;;0.63;100.00;101563.03;10295336;28;20141;-72
2023/12/03 16:42:02;;;;;;;24.35;18.27;;;;;;;0.47;100.00;101579.34;10295937;28;20031;-71
2023/12/03 16:47:02;;;;;;;31.40;17.55;;;;;;;0.39;100.00;101564.91;10296782;28;20128;-71
2023/12/03 16:52:04;;;;;;;20.27;12.85;;;;;;;0.24;100.00;101556.25;10296594;28;20126;-71
2023/12/03 16:57:09;;;;;;;28.10;15.13;;;;;;;0.18;100.00;101554.03;10295074;28;20086;-71
2023/12/03 17:02:10;;;;;;;20.40;15.32;;;;;;;0.12;100.00;101560.66;10293800;28;20133;-73
2023/12/03 17:07:11;;;;;;;16.90;14.10;;;;;;;0.10;100.00;101556.44;10295825;28;20051;-72
2023/12/03 17:12:11;;;;;;;31.13;15.13;;;;;;;0.08;100.00;101542.38;10295563;28;20074;-71
2023/12/03 17:17:11;;;;;;;24.40;15.82;;;;;;;0.05;100.00;101531.94;10295565;28;20108;-72
2023/12/03 17:22:12;;;;;;;29.92;17.90;;;;;;;0.04;100.00;101527.59;10296092;28;20034;-71
2023/12/03 17:27:12;;;;;;;19.95;16.25;;;;;;;0.04;100.00;101533.75;10293922;28;20490;-70
2023/12/03 17:32:13;;;;;;;22.33;17.77;;;;;;;-0.08;100.00;101526.69;10294218;28;20039;-71
2023/12/03 17:37:13;;;;;;;36.03;18.58;;;;;;;-0.05;100.00;101518.47;10295764;28;20053;-71
2023/12/03 17:42:14;;;;;;;31.65;19.75;;;;;;;-0.04;100.00;101521.00;10278108;28;20031;-72
2023/12/03 17:47:14;;;;;;;26.75;16.90;;;;;;;-0.12;100.00;101511.91;10296953;28;20101;-69
2023/12/03 17:52:15;;;;;;;31.58;20.92;;;;;;;-0.08;100.00;101510.72;10294040;28;20054;-72
2023/12/03 17:57:15;;;;;;;33.15;22.42;;;;;;;-0.15;100.00;101502.31;10307252;28;20070;-72
2023/12/03 18:02:16;;;;;;;25.60;17.85;;;;;;;-0.08;100.00;101497.41;10333557;28;20034;-70
2023/12/03 18:07:16;;;;;;;23.73;16.15;;;;;;;-0.08;100.00;101490.25;10297762;28;20030;-70
2023/12/03 18:12:17;;;;;;;24.98;17.67;;;;;;;-0.09;100.00;101479.72;10295339;28;20041;-69
2023/12/03 18:17:19;;;;;;;1.33;1.33;;;;;;;-0.05;100.00;101481.19;10293652;28;20414;-70
2023/12/03 18:22:19;;;;;;;1.00;1.00;;;;;;;-0.02;100.00;101475.66;10294477;28;20122;-71
2023/12/03 18:27:20;;;;;;;1.73;1.63;;;;;;;-0.01;100.00;101472.84;10292718;28;20580;-70
2023/12/03 18:32:20;;;;;;;0.93;0.93;;;;;;;-0.06;100.00;101466.19;10292117;28;20038;-71
2023/12/03 18:37:20;;;;;;;0.88;0.88;;;;;;;-0.04;100.00;101457.09;10291244;28;20086;-71
2023/12/03 18:42:21;;;;;;;1.20;1.20;;;;;;;-0.03;100.00;101445.50;10294288;28;20042;-70
2023/12/03 18:47:21;;;;;;;1.02;1.02;;;;;;;-0.01;100.00;101448.88;10294941;28;20039;-71
2023/12/03 18:52:22;;;;;;;1.00;1.00;;;;;;;-0.11;100.00;101425.75;10294902;28;20038;-73
2023/12/03 18:57:22;;;;;;;2.08;2.08;;;;;;;-0.07;100.00;101440.50;10292480;28;20367;-72
2023/12/03 19:02:23;;;;;;;0.70;0.70;;;;;;;-0.09;100.00;101427.34;10291617;28;20046;-70
2023/12/03 19:07:23;;;;;;;1.35;1.35;;;;;;;-0.06;100.00;101423.59;10291102;28;20435;-71
2023/12/03 19:12:24;;;;;;;1.30;1.30;;;;;;;-0.06;100.00;101435.09;10291311;28;20078;-72
2023/12/03 19:17:25;;;;;;;1.08;1.08;;;;;;;-0.07;100.00;101421.88;10274689;28;20046;-71
2023/12/03 19:22:27;;;;;;;0.82;0.82;;;;;;;-0.04;100.00;101434.97;10291841;28;20046;-72
2023/12/03 19:27:27;;;;;;;1.08;1.08;;;;;;;-0.03;100.00;101426.03;10299532;28;20081;-72
2023/12/03 19:32:28;;;;;;;1.10;1.10;;;;;;;-0.04;100.00;101417.16;10282929;28;20173;-70
2023/12/03 19:37:28;;;;;;;0.85;0.85;;;;;;;0.02;100.00;101405.22;10299438;28;20061;-72
2023/12/03 19:42:29;;;;;;;1.00;1.00;;;;;;;0.01;100.00;101400.88;10298838;28;20089;-72
2023/12/03 19:47:31;;;;;;;1.33;1.33;;;;;;;0.01;100.00;101397.34;10281651;28;20089;-71
2023/12/03 19:52:32;;;;;;;2.60;2.53;;;;;;;0.05;100.00;101398.81;10300009;28;20058;-71
2023/12/03 19:57:32;;;;;;;0.90;0.90;;;;;;;0.05;100.00;101378.34;10298208;28;20090;-71
2023/12/03 20:02:33;;;;;;;1.00;1.00;;;;;;;0.10;100.00;101375.34;10282328;28;20035;-72
2023/12/03 20:07:33;;;;;;;15.98;2.65;;;;;;;0.10;100.00;101370.88;10298369;28;20125;-72
2023/12/03 20:12:34;;;;;;;1.00;1.00;;;;;;;0.15;100.00;101363.34;10295775;28;20174;-73
2023/12/03 20:17:34;;;;;;;1.65;1.63;;;;;;;0.09;100.00;101363.84;10297135;28;20406;-72
2023/12/03 20:22:35;;;;;;;1.25;1.25;;;;;;;0.09;100.00;101355.84;10297497;28;20042;-71
2023/12/03 20:27:35;;;;;;;0.90;0.90;;;;;;;0.16;100.00;101345.56;10297004;28;20056;-71
2023/12/03 20:32:36;;;;;;;1.35;1.35;;;;;;;0.19;100.00;101332.00;10298092;28;20351;-73
2023/12/03 20:37:37;;;;;;;29.13;3.35;;;;;;;0.20;100.00;101337.22;10296317;28;20451;-72
2023/12/03 20:42:38;;;;;;;5.47;1.98;;;;;;;0.23;100.00;101328.16;10296508;28;20045;-74
2023/12/03 20:47:39;;;;;;;1.70;1.70;;;;;;;0.20;100.00;101323.91;10296669;28;20395;-73
2023/12/03 20:52:39;;;;;;;1.10;1.10;;;;;;;0.29;100.00;101314.38;10294746;28;20039;-72
2023/12/03 20:57:41;;;;;;;0.75;0.75;;;;;;;0.30;100.00;101318.72;10279380;28;20051;-73
2023/12/03 21:02:41;;;;;;;1.20;1.20;;;;;;;0.32;100.00;101303.47;10295551;28;20043;-71
2023/12/03 21:07:42;;;;;;;1.27;1.27;;;;;;;0.29;100.00;101294.84;10294127;28;20042;-71
2023/12/03 21:12:43;;;;;;;1.17;1.17;;;;;;;0.39;100.00;101287.84;10295517;28;20043;-72
2023/12/03 21:17:44;;;;;;;1.05;1.05;;;;;;;0.40;100.00;101281.53;10293865;28;20035;-73
2023/12/03 21:22:44;;;;;;;1.10;1.10;;;;;;;0.45;100.00;101279.38;10294576;28;20414;-71
2023/12/03 21:27:45;;;;;;;1.13;1.13;;;;;;;0.45;100.00;101272.22;10294793;28;20058;-71
2023/12/03 21:32:45;;;;;;;0.90;0.90;;;;;;;0.43;100.00;101262.63;10294554;28;20125;-72
2023/12/03 21:37:48;;;;;;;0.73;0.73;;;;;;;0.40;100.00;101262.88;10294442;28;20086;-71
2023/12/03 21:42:48;;;;;;;3.83;3.63;;;;;;;0.36;100.00;101259.63;10294442;28;20165;-71
2023/12/03 21:47:49;;;;;;;0.90;0.90;;;;;;;0.34;100.00;101255.38;10292920;28;20055;-71
2023/12/03 21:52:49;;;;;;;0.80;0.80;;;;;;;0.36;100.00;101245.47;10293288;28;20034;-70
2023/12/03 21:57:50;;;;;;;0.90;0.90;;;;;;;0.37;100.00;101239.16;10294706;28;20034;-70
2023/12/03 22:02:51;;;;;;;0.90;0.90;;;;;;;0.40;100.00;101233.59;10292852;28;20034;-70
2023/12/03 22:07:51;;;;;;;2.75;2.65;;;;;;;0.39;100.00;101227.41;10294629;28;20066;-72
2023/12/03 22:12:52;;;;;;;0.70;0.70;;;;;;;0.38;100.00;101227.50;10297649;28;20583;-71
2023/12/03 22:17:52;;;;;;;0.82;0.82;;;;;;;0.42;100.00;101231.66;10294689;28;20058;-71
2023/12/03 22:22:52;;;;;;;1.10;1.10;;;;;;;0.40;100.00;101230.91;10295055;28;20467;-70
2023/12/03 22:27:53;;;;;;;0.70;0.70;;;;;;;0.39;100.00;101226.56;10292881;28;20031;-72
2023/12/03 22:32:53;;;;;;;0.82;0.82;;;;;;;0.42;100.00;101224.50;10292742;28;20058;-71
2023/12/03 22:37:54;;;;;;;1.50;1.50;;;;;;;0.39;100.00;101202.59;10291700;28;20082;-70
2023/12/03 22:42:54;;;;;;;1.92;1.60;;;;;;;0.51;100.00;101217.59;10293623;28;20118;-70
2023/12/03 22:47:55;;;;;;;0.85;0.85;;;;;;;0.42;100.00;101197.03;10293668;28;20077;-69
2023/12/03 22:52:55;;;;;;;4.57;1.70;;;;;;;0.52;100.00;101205.94;10327026;28;20038;-72